Time,TemperatureF,DewpointF,PressureIn,WindDirection,WindDirectionDegrees,WindSpeedMPH,WindSpeedGustMPH,Humidity,HourlyPrecipIn,Conditions,Clouds,dailyrainin,SolarRadiationWatts/m^2,SoftwareType,DateUTC
2013-07-22 00:01:00,65.0,46.0,-100.00,West,264,11.0,20.0,50,0.00,,,0.00,0.000000,,2013-07-22 07:01:00,
2013-07-22 00:11:00,65.0,46.0,-100.00,West,264,11.0,20.0,50,0.00,,,0.00,0.000000,,2013-07-22 07:11:00,
2013-07-22 00:43:00,64.0,47.0,-100.00,West,265,11.0,20.0,53,0.00,,,0.00,0.000000,,2013-07-22 07:43:00,
2013-07-22 00:53:00,64.0,47.0,-100.00,West,265,11.0,20.0,53,0.00,,,0.00,0.000000,,2013-07-22 07:53:00,
2013-07-22 01:01:00,64.0,47.0,-100.00,West,265,11.0,20.0,53,0.00,,,0.00,0.000000,,2013-07-22 08:01:00,
2013-07-22 01:11:00,64.0,47.0,-100.00,West,265,11.0,20.0,53,0.00,,,0.00,0.000000,,2013-07-22 08:11:00,
2013-07-22 01:32:00,64.0,47.0,-100.00,West,263,9.0,17.0,53,0.00,,,0.00,0.000000,,2013-07-22 08:32:00,
2013-07-22 01:43:00,64.0,47.0,-100.00,West,263,9.0,17.0,53,0.00,,,0.00,0.000000,,2013-07-22 08:43:00,
2013-07-22 01:52:00,64.0,47.0,-100.00,West,263,9.0,17.0,53,0.00,,,0.00,0.000000,,2013-07-22 08:52:00,
2013-07-22 02:02:00,64.0,47.0,-100.00,West,263,9.0,17.0,53,0.00,,,0.00,0.000000,,2013-07-22 09:02:00,
2013-07-22 02:11:00,64.0,47.0,-100.00,West,263,9.0,17.0,53,0.00,,,0.00,0.000000,,2013-07-22 09:11:00,
2013-07-22 02:33:00,64.0,45.0,-100.00,West,260,11.0,18.0,51,0.00,,,0.00,0.000000,,2013-07-22 09:33:00,
2013-07-22 02:42:00,64.0,45.0,-100.00,West,260,11.0,18.0,51,0.00,,,0.00,0.000000,,2013-07-22 09:42:00,
2013-07-22 02:52:00,64.0,45.0,-100.00,West,260,11.0,18.0,51,0.00,,,0.00,0.000000,,2013-07-22 09:52:00,
2013-07-22 03:01:00,64.0,45.0,-100.00,West,260,11.0,18.0,51,0.00,,,0.00,0.000000,,2013-07-22 10:01:00,
2013-07-22 03:11:00,64.0,45.0,-100.00,West,260,11.0,18.0,51,0.00,,,0.00,0.000000,,2013-07-22 10:11:00,
2013-07-22 03:32:00,63.0,44.0,-100.00,West,263,12.0,20.0,49,0.00,,,0.00,0.000000,,2013-07-22 10:32:00,
2013-07-22 03:43:00,63.0,44.0,-100.00,West,263,12.0,20.0,49,0.00,,,0.00,0.000000,,2013-07-22 10:43:00,
2013-07-22 03:53:00,63.0,44.0,-100.00,West,263,12.0,20.0,49,0.00,,,0.00,0.000000,,2013-07-22 10:53:00,
2013-07-22 04:01:00,63.0,44.0,-100.00,West,263,12.0,20.0,49,0.00,,,0.00,0.000000,,2013-07-22 11:01:00,
2013-07-22 04:11:00,63.0,44.0,-100.00,West,263,12.0,20.0,49,0.00,,,0.00,0.000000,,2013-07-22 11:11:00,
2013-07-22 04:32:00,63.0,44.0,-100.00,West,264,12.0,20.0,49,0.00,,,0.00,0.000000,,2013-07-22 11:32:00,
2013-07-22 04:43:00,63.0,44.0,-100.00,West,264,12.0,20.0,49,0.00,,,0.00,0.000000,,2013-07-22 11:43:00,
2013-07-22 04:52:00,63.0,44.0,-100.00,West,264,12.0,20.0,49,0.00,,,0.00,0.000000,,2013-07-22 11:52:00,
2013-07-22 05:02:00,63.0,44.0,-100.00,West,264,12.0,20.0,49,0.00,,,0.00,0.000000,,2013-07-22 12:02:00,
2013-07-22 05:11:00,63.0,44.0,-100.00,West,264,12.0,20.0,49,0.00,,,0.00,0.000000,,2013-07-22 12:11:00,
2013-07-22 05:43:00,63.0,40.0,-100.00,West,262,10.0,20.0,43,0.00,,,0.00,0.000000,,2013-07-22 12:43:00,
2013-07-22 05:53:00,63.0,40.0,-100.00,West,262,10.0,20.0,43,0.00,,,0.00,0.000000,,2013-07-22 12:53:00,
2013-07-22 06:01:00,63.0,40.0,-100.00,West,262,10.0,20.0,43,0.00,,,0.00,0.000000,,2013-07-22 13:01:00,
2013-07-22 06:11:00,63.0,40.0,-100.00,West,262,10.0,20.0,43,0.00,,,0.00,0.000000,,2013-07-22 13:11:00,
2013-07-22 06:43:00,63.0,38.0,-100.00,West,261,9.0,16.0,40,0.00,,,0.00,21.000000,,2013-07-22 13:43:00,
2013-07-22 06:53:00,63.0,38.0,-100.00,West,261,9.0,16.0,40,0.00,,,0.00,21.000000,,2013-07-22 13:53:00,
2013-07-22 07:01:00,63.0,38.0,-100.00,West,261,9.0,16.0,40,0.00,,,0.00,21.000000,,2013-07-22 14:01:00,
2013-07-22 07:11:00,63.0,38.0,-100.00,West,261,9.0,16.0,40,0.00,,,0.00,21.000000,,2013-07-22 14:11:00,
2013-07-22 07:43:00,65.0,37.0,-100.00,West,261,8.0,15.0,36,-99.99,,,0.00,155.000000,,2013-07-22 14:43:00,
2013-07-22 07:53:00,65.0,37.0,-100.00,West,261,8.0,15.0,36,-99.99,,,0.00,155.000000,,2013-07-22 14:53:00,
2013-07-22 08:01:00,65.0,37.0,-100.00,West,261,8.0,15.0,36,-99.99,,,0.00,155.000000,,2013-07-22 15:01:00,
2013-07-22 08:11:00,65.0,37.0,-100.00,West,261,8.0,15.0,36,-99.99,,,0.00,155.000000,,2013-07-22 15:11:00,
2013-07-22 08:43:00,69.0,35.0,-100.00,WSW,258,7.0,14.0,29,0.00,,,0.00,361.000000,,2013-07-22 15:43:00,
2013-07-22 08:52:00,69.0,35.0,-100.00,WSW,258,7.0,14.0,29,0.00,,,0.00,361.000000,,2013-07-22 15:52:00,
2013-07-22 09:01:00,69.0,35.0,-100.00,WSW,258,7.0,14.0,29,0.00,,,0.00,361.000000,,2013-07-22 16:01:00,
2013-07-22 09:32:00,72.0,39.0,-100.00,West,260,7.0,13.0,30,0.00,,,0.00,582.000000,,2013-07-22 16:32:00,
2013-07-22 09:43:00,72.0,39.0,-100.00,West,260,7.0,13.0,30,0.00,,,0.00,582.000000,,2013-07-22 16:43:00,
2013-07-22 09:52:00,72.0,39.0,-100.00,West,260,7.0,13.0,30,0.00,,,0.00,582.000000,,2013-07-22 16:52:00,
2013-07-22 10:01:00,72.0,39.0,-100.00,West,260,7.0,13.0,30,0.00,,,0.00,582.000000,,2013-07-22 17:01:00,
2013-07-22 10:11:00,72.0,39.0,-100.00,West,260,7.0,13.0,30,0.00,,,0.00,582.000000,,2013-07-22 17:11:00,
2013-07-22 10:43:00,77.0,41.0,-100.00,West,264,6.0,14.0,28,0.00,,,0.00,762.000000,,2013-07-22 17:43:00,
2013-07-22 10:52:00,77.0,41.0,-100.00,West,264,6.0,14.0,28,0.00,,,0.00,762.000000,,2013-07-22 17:52:00,
2013-07-22 11:03:00,77.0,41.0,-100.00,West,264,6.0,14.0,28,0.00,,,0.00,762.000000,,2013-07-22 18:03:00,
2013-07-22 11:12:00,77.0,41.0,-100.00,West,264,6.0,14.0,28,0.00,,,0.00,762.000000,,2013-07-22 18:12:00,
2013-07-22 11:53:00,79.0,43.0,-100.00,WSW,255,8.0,15.0,28,0.00,,,0.00,901.000000,,2013-07-22 18:53:00,
2013-07-22 12:02:00,79.0,43.0,-100.00,WSW,255,8.0,15.0,28,0.00,,,0.00,901.000000,,2013-07-22 19:02:00,
2013-07-22 12:11:00,79.0,43.0,-100.00,WSW,255,8.0,15.0,28,0.00,,,0.00,901.000000,,2013-07-22 19:11:00,
2013-07-22 12:46:00,81.0,41.0,-100.00,WSW,257,8.0,17.0,24,0.00,,,0.00,989.000000,,2013-07-22 19:46:00,
2013-07-22 12:55:00,81.0,41.0,-100.00,WSW,257,8.0,17.0,24,0.00,,,0.00,989.000000,,2013-07-22 19:55:00,
2013-07-22 13:03:00,81.0,41.0,-100.00,WSW,257,8.0,17.0,24,0.00,,,0.00,989.000000,,2013-07-22 20:03:00,
2013-07-22 13:12:00,81.0,41.0,-100.00,WSW,257,8.0,17.0,24,0.00,,,0.00,989.000000,,2013-07-22 20:12:00,
2013-07-22 13:32:00,84.0,43.0,-100.00,West,265,8.0,17.0,24,0.00,,,0.00,1029.000000,,2013-07-22 20:32:00,
2013-07-22 13:43:00,84.0,43.0,-100.00,West,265,8.0,17.0,24,0.00,,,0.00,1029.000000,,2013-07-22 20:43:00,
2013-07-22 13:52:00,84.0,43.0,-100.00,West,265,8.0,17.0,24,0.00,,,0.00,1029.000000,,2013-07-22 20:52:00,
2013-07-22 14:01:00,84.0,43.0,-100.00,West,265,8.0,17.0,24,0.00,,,0.00,1029.000000,,2013-07-22 21:01:00,
2013-07-22 14:11:00,84.0,43.0,-100.00,West,265,8.0,17.0,24,0.00,,,0.00,1029.000000,,2013-07-22 21:11:00,
2013-07-22 14:43:00,84.0,43.0,-100.00,West,267,8.0,19.0,24,0.00,,,0.00,901.000000,,2013-07-22 21:43:00,
2013-07-22 14:53:00,84.0,43.0,-100.00,West,267,8.0,19.0,24,0.00,,,0.00,901.000000,,2013-07-22 21:53:00,
2013-07-22 15:01:00,84.0,43.0,-100.00,West,267,8.0,19.0,24,0.00,,,0.00,901.000000,,2013-07-22 22:01:00,
2013-07-22 15:11:00,84.0,43.0,-100.00,West,267,8.0,19.0,24,0.00,,,0.00,901.000000,,2013-07-22 22:11:00,
2013-07-22 15:43:00,86.0,44.0,-100.00,West,259,9.0,17.0,23,0.00,,,0.00,745.000000,,2013-07-22 22:43:00,
2013-07-22 15:52:00,86.0,44.0,-100.00,West,259,9.0,17.0,23,0.00,,,0.00,745.000000,,2013-07-22 22:52:00,
2013-07-22 16:01:00,86.0,44.0,-100.00,West,259,9.0,17.0,23,0.00,,,0.00,745.000000,,2013-07-22 23:01:00,
2013-07-22 16:11:00,86.0,44.0,-100.00,West,259,9.0,17.0,23,0.00,,,0.00,745.000000,,2013-07-22 23:11:00,
2013-07-22 16:43:00,85.0,43.0,-100.00,WSW,257,9.0,19.0,23,0.00,,,0.00,840.000000,,2013-07-22 23:43:00,
2013-07-22 16:52:00,85.0,43.0,-100.00,WSW,257,9.0,19.0,23,0.00,,,0.00,840.000000,,2013-07-22 23:52:00,
2013-07-22 17:01:00,85.0,43.0,-100.00,WSW,257,9.0,19.0,23,0.00,,,0.00,840.000000,,2013-07-23 00:01:00,
2013-07-22 17:11:00,85.0,43.0,-100.00,WSW,257,9.0,19.0,23,0.00,,,0.00,840.000000,,2013-07-23 00:11:00,
2013-07-22 17:43:00,85.0,43.0,-100.00,WSW,258,10.0,20.0,23,0.00,,,0.00,621.000000,,2013-07-23 00:43:00,
2013-07-22 17:52:00,85.0,43.0,-100.00,WSW,258,10.0,20.0,23,0.00,,,0.00,621.000000,,2013-07-23 00:52:00,
2013-07-22 18:01:00,85.0,43.0,-100.00,WSW,258,10.0,20.0,23,0.00,,,0.00,621.000000,,2013-07-23 01:01:00,
2013-07-22 18:11:00,85.0,43.0,-100.00,WSW,258,10.0,20.0,23,0.00,,,0.00,621.000000,,2013-07-23 01:11:00,
2013-07-22 18:43:00,83.0,41.0,-100.00,West,262,10.0,20.0,23,0.00,,,0.00,265.000000,,2013-07-23 01:43:00,
2013-07-22 18:53:00,83.0,41.0,-100.00,West,262,10.0,20.0,23,0.00,,,0.00,265.000000,,2013-07-23 01:53:00,
2013-07-22 19:01:00,83.0,41.0,-100.00,West,262,10.0,20.0,23,0.00,,,0.00,265.000000,,2013-07-23 02:01:00,
2013-07-22 19:11:00,83.0,41.0,-100.00,West,262,10.0,20.0,23,0.00,,,0.00,265.000000,,2013-07-23 02:11:00,
2013-07-22 19:33:00,80.0,40.0,-100.00,West,262,12.0,20.0,24,0.00,,,0.00,282.000000,,2013-07-23 02:33:00,
2013-07-22 19:43:00,80.0,40.0,-100.00,West,262,12.0,20.0,24,0.00,,,0.00,282.000000,,2013-07-23 02:43:00,
2013-07-22 19:53:00,80.0,40.0,-100.00,West,262,12.0,20.0,24,0.00,,,0.00,282.000000,,2013-07-23 02:53:00,
2013-07-22 20:01:00,80.0,40.0,-100.00,West,262,12.0,20.0,24,0.00,,,0.00,282.000000,,2013-07-23 03:01:00,
2013-07-22 20:11:00,80.0,40.0,-100.00,West,262,12.0,20.0,24,0.00,,,0.00,282.000000,,2013-07-23 03:11:00,
2013-07-22 20:43:00,74.0,38.0,-100.00,West,266,10.0,20.0,27,0.00,,,0.00,72.000000,,2013-07-23 03:43:00,
2013-07-22 20:52:00,74.0,38.0,-100.00,West,266,10.0,20.0,27,0.00,,,0.00,72.000000,,2013-07-23 03:52:00,
2013-07-22 21:01:00,74.0,38.0,-100.00,West,266,10.0,20.0,27,0.00,,,0.00,72.000000,,2013-07-23 04:01:00,
2013-07-22 21:11:00,74.0,38.0,-100.00,West,266,10.0,20.0,27,0.00,,,0.00,72.000000,,2013-07-23 04:11:00,
2013-07-22 21:43:00,71.0,40.0,-100.00,West,265,11.0,20.0,33,0.00,,,0.00,7.000000,,2013-07-23 04:43:00,
2013-07-22 21:53:00,71.0,40.0,-100.00,West,265,11.0,20.0,33,0.00,,,0.00,7.000000,,2013-07-23 04:53:00,
2013-07-22 22:02:00,71.0,40.0,-100.00,West,265,11.0,20.0,33,0.00,,,0.00,7.000000,,2013-07-23 05:02:00,
2013-07-22 22:11:00,71.0,40.0,-100.00,West,265,11.0,20.0,33,0.00,,,0.00,7.000000,,2013-07-23 05:11:00,
2013-07-22 22:44:00,68.0,39.0,-100.00,West,265,11.0,22.0,35,0.00,,,0.00,0.000000,,2013-07-23 05:44:00,
2013-07-22 22:52:00,68.0,39.0,-100.00,West,265,11.0,22.0,35,0.00,,,0.00,0.000000,,2013-07-23 05:52:00,
2013-07-22 23:01:00,68.0,39.0,-100.00,West,265,11.0,22.0,35,0.00,,,0.00,0.000000,,2013-07-23 06:01:00,
2013-07-22 23:11:00,68.0,39.0,-100.00,West,265,11.0,22.0,35,0.00,,,0.00,0.000000,,2013-07-23 06:11:00,